Time;durP1;ratioP1;P1;durP2;ratioP2;P2;SDS_P1;SDS_P2;PMS_P1;PMS_P2;Temp;Humidity;BMP_temperature;BMP_pressure;BME280_temperature;BME280_humidity;BME280_pressure;Samples;Min_cycle;Max_cycle;Signal;HPM_P1;HPM_P2
2022/01/28 00:01:36;;;;;;;1999.90;999.90;;;;;;;4.53;100.00;103101.56;5016193;28;20028;-68
2022/01/28 00:04:12;;;;;;;1999.90;999.90;;;;;;;4.70;100.00;103100.09;5018389;28;20084;-68
2022/01/28 00:06:37;;;;;;;1999.90;999.90;;;;;;;4.63;100.00;103101.75;5017694;28;20026;-68
2022/01/28 00:09:03;;;;;;;1999.90;999.90;;;;;;;4.56;100.00;103113.03;5016171;28;20029;-69
2022/01/28 00:11:28;;;;;;;1999.90;999.90;;;;;;;4.52;100.00;103116.44;5016629;28;20029;-69
2022/01/28 00:14:02;;;;;;;1999.90;999.90;;;;;;;4.41;100.00;103115.38;5016774;28;20256;-68
2022/01/28 00:38:44;;;;;;;1999.90;999.90;;;;;;;5.06;100.00;103129.66;5016107;28;20044;-69
2022/01/28 00:41:10;;;;;;;1999.90;999.90;;;;;;;5.01;100.00;103122.56;5015991;28;20117;-68
2022/01/28 00:43:35;;;;;;;1999.90;999.90;;;;;;;5.14;100.00;103133.31;5030734;28;20073;-69
2022/01/28 00:46:00;;;;;;;1999.90;999.90;;;;;;;5.02;100.00;103127.88;5015223;28;20073;-68
2022/01/28 00:48:25;;;;;;;1999.90;999.90;;;;;;;5.19;100.00;103136.91;5015411;28;20026;-68
2022/01/28 00:50:51;;;;;;;1999.90;999.90;;;;;;;5.18;100.00;103139.53;5014120;28;20029;-69
2022/01/28 00:53:16;;;;;;;1999.90;999.90;;;;;;;5.09;100.00;103148.16;5015354;28;20385;-69
2022/01/28 00:55:41;;;;;;;1999.90;999.90;;;;;;;4.94;100.00;103155.81;5015372;28;20022;-68
2022/01/28 00:58:07;;;;;;;1999.90;999.90;;;;;;;4.85;100.00;103158.31;5015711;28;20034;-69
2022/01/28 01:00:32;;;;;;;1999.90;999.90;;;;;;;4.93;100.00;103156.69;5015688;28;20030;-68
2022/01/28 01:02:57;;;;;;;1999.90;999.90;;;;;;;4.75;100.00;103148.44;5015484;28;20029;-68
2022/01/28 01:05:23;;;;;;;1999.90;999.90;;;;;;;4.92;100.00;103154.88;5013667;28;20030;-68
2022/01/28 01:07:49;;;;;;;1999.90;999.90;;;;;;;4.98;100.00;103157.63;5013651;28;20026;-69
2022/01/28 01:10:15;;;;;;;1999.90;999.90;;;;;;;4.97;100.00;103155.88;5030075;28;20026;-68
2022/01/28 01:12:44;;;;;;;1999.90;999.90;;;;;;;4.99;100.00;103154.16;5015363;28;20146;-68
2022/01/28 01:15:13;;;;;;;1999.90;999.90;;;;;;;5.12;100.00;103152.59;5030267;28;20037;-69
2022/01/28 01:17:45;;;;;;;1999.90;999.90;;;;;;;5.12;100.00;103155.25;5015286;28;20272;-68
2022/01/28 01:23:07;;;;;;;1999.90;999.90;;;;;;;4.88;100.00;103150.44;5014984;28;20040;-68
2022/01/28 01:28:13;;;;;;;1999.90;999.90;;;;;;;4.81;100.00;103164.34;5014473;28;20115;-68
2022/01/28 01:31:15;;;;;;;1999.90;999.90;;;;;;;4.76;100.00;103166.00;5014714;28;20109;-69
2022/01/28 01:33:50;;;;;;;1999.90;999.90;;;;;;;4.58;100.00;103178.84;5015205;28;20477;-68
2022/01/28 01:36:15;;;;;;;1999.90;999.90;;;;;;;4.50;100.00;103185.72;5014899;28;20104;-68
2022/01/28 01:38:42;;;;;;;1999.90;999.90;;;;;;;4.49;100.00;103192.69;5014506;28;20021;-69
2022/01/28 01:41:13;;;;;;;1999.90;999.90;;;;;;;4.46;100.00;103197.00;4997961;28;20026;-68
2022/01/28 01:43:59;;;;;;;1999.90;999.90;;;;;;;4.47;100.00;103186.56;4995352;28;20030;-68
2022/01/28 01:54:18;;;;;;;1999.90;999.90;;;;;;;4.41;100.00;103193.44;4994454;28;20077;-68
2022/01/28 01:56:45;;;;;;;1999.90;999.90;;;;;;;4.73;100.00;103198.44;4993471;28;20129;-68
2022/01/28 01:59:10;;;;;;;1999.90;999.90;;;;;;;4.85;100.00;103192.53;4994668;28;20462;-69
2022/01/28 02:01:38;;;;;;;1999.90;999.90;;;;;;;5.02;100.00;103187.53;4994823;28;20033;-68
2022/01/28 02:04:04;;;;;;;1999.90;999.90;;;;;;;5.03;100.00;103197.22;4995203;28;20099;-68
2022/01/28 02:06:30;;;;;;;1999.90;999.90;;;;;;;5.26;100.00;103203.75;4994376;28;20034;-69
2022/01/28 02:08:55;;;;;;;1999.90;999.90;;;;;;;5.61;100.00;103214.00;4994625;28;20038;-68
2022/01/28 02:11:42;;;;;;;1999.90;999.90;;;;;;;5.64;100.00;103205.25;5020009;28;20524;-69
2022/01/28 02:14:08;;;;;;;1999.90;999.90;;;;;;;5.70;100.00;103207.97;5002272;28;20044;-68
2022/01/28 02:16:34;;;;;;;1999.90;999.90;;;;;;;5.79;100.00;103216.03;5002164;28;20033;-69
2022/01/28 02:19:19;;;;;;;1999.90;999.90;;;;;;;5.67;100.00;103224.63;5002104;28;20456;-68
2022/01/28 02:21:50;;;;;;;1999.90;999.90;;;;;;;5.57;100.00;103208.66;5005246;28;20113;-68
2022/01/28 02:24:20;;;;;;;1999.90;999.90;;;;;;;5.47;100.00;103205.00;5002319;28;20431;-68
2022/01/28 02:26:46;;;;;;;;;;;;;;;5.14;100.00;103206.22;5000605;28;20054;-68
2022/01/28 02:29:14;;;;;;;1999.90;999.90;;;;;;;4.96;100.00;103212.03;5005355;28;19913;-69
2022/01/28 02:31:41;;;;;;;1999.90;999.90;;;;;;;4.79;100.00;103212.59;5003645;28;20022;-69
2022/01/28 02:34:10;;;;;;;1999.90;999.90;;;;;;;4.78;100.00;103203.78;5002466;28;20026;-69
2022/01/28 02:36:35;;;;;;;1999.90;999.90;;;;;;;4.68;100.00;103210.63;5012563;28;20041;-68
2022/01/28 02:39:01;;;;;;;1999.90;999.90;;;;;;;4.54;100.00;103211.22;5013787;28;20025;-68
2022/01/28 02:41:31;;;;;;;1999.90;999.90;;;;;;;4.38;100.00;103202.13;5014603;28;20071;-68
2022/01/28 02:46:25;;;;;;;1999.90;999.90;;;;;;;4.28;100.00;103215.97;5013804;28;20054;-69
2022/01/28 02:49:10;;;;;;;1999.90;999.90;;;;;;;4.17;100.00;103227.13;5013899;28;20104;-68
2022/01/28 02:51:36;;;;;;;1999.90;999.90;;;;;;;4.28;100.00;103208.09;5013942;28;20328;-69
2022/01/28 02:54:13;;;;;;;1999.90;999.90;;;;;;;4.15;100.00;103218.28;5012589;28;20033;-68
2022/01/28 02:56:45;;;;;;;1999.90;999.90;;;;;;;4.20;100.00;103224.53;5014384;28;20030;-68
2022/01/28 02:59:11;;;;;;;1999.90;999.90;;;;;;;4.05;100.00;103219.84;5014621;28;20026;-69
2022/01/28 03:01:36;;;;;;;1999.90;999.90;;;;;;;4.01;100.00;103220.63;5013839;28;20389;-68
2022/01/28 03:04:04;;;;;;;1999.90;999.90;;;;;;;4.04;100.00;103225.06;5013718;28;20486;-69
2022/01/28 03:06:29;;;;;;;1999.90;999.90;;;;;;;4.01;100.00;103225.00;5012488;28;20457;-69
2022/01/28 03:09:00;;;;;;;1999.90;999.90;;;;;;;3.95;100.00;103230.13;5013599;28;20044;-68
2022/01/28 03:15:00;;;;;;;1999.90;999.90;;;;;;;4.17;100.00;103228.00;5013423;28;20038;-69
2022/01/28 03:19:44;;;;;;;1999.90;999.90;;;;;;;4.32;100.00;103244.09;5014118;28;20119;-68
2022/01/28 03:22:10;;;;;;;1999.90;999.90;;;;;;;4.18;100.00;103235.03;5012299;28;20030;-68
2022/01/28 03:24:35;;;;;;;1999.90;999.90;;;;;;;4.14;100.00;103235.84;5013622;28;20025;-69
2022/01/28 03:27:10;;;;;;;1999.90;999.90;;;;;;;4.12;100.00;103231.38;5013467;28;20069;-68
2022/01/28 03:29:35;;;;;;;1999.90;999.90;;;;;;;4.37;100.00;103231.94;5014135;28;20061;-68
2022/01/28 03:32:00;;;;;;;1999.90;999.90;;;;;;;4.31;100.00;103239.72;5013017;28;20121;-68
2022/01/28 03:35:09;;;;;;;1999.90;999.90;;;;;;;4.22;100.00;103233.38;5001645;28;20374;-68
2022/01/28 03:37:35;;;;;;;1999.90;999.90;;;;;;;4.32;100.00;103235.31;4997316;28;20026;-68
2022/01/28 03:40:11;;;;;;;1999.90;999.90;;;;;;;4.21;100.00;103239.47;4997647;28;20033;-68
2022/01/28 03:42:37;;;;;;;1999.90;999.90;;;;;;;4.24;100.00;103242.16;4997599;28;20027;-68
2022/01/28 03:45:05;;;;;;;1999.90;999.90;;;;;;;4.06;100.00;103239.13;4996811;28;20023;-69
2022/01/28 03:47:30;;;;;;;1999.90;999.90;;;;;;;4.06;100.00;103247.03;4995740;28;20390;-68
2022/01/28 03:49:55;;;;;;;1999.90;999.90;;;;;;;4.10;100.00;103259.38;4996962;28;20029;-68
2022/01/28 03:52:21;;;;;;;1999.90;999.90;;;;;;;4.09;100.00;103260.25;4996791;28;20108;-68
2022/01/28 03:54:46;;;;;;;1999.90;999.90;;;;;;;3.90;100.00;103250.16;4996885;28;20106;-68
2022/01/28 03:57:11;;;;;;;1999.90;999.90;;;;;;;3.84;100.00;103250.94;4997105;28;20062;-68
2022/01/28 03:59:37;;;;;;;1999.90;999.90;;;;;;;4.08;100.00;103261.09;4997362;28;20389;-69
2022/01/28 04:02:06;;;;;;;1999.90;999.90;;;;;;;4.01;100.00;103267.06;4996947;28;20026;-68
2022/01/28 04:12:47;;;;;;;1999.90;999.90;;;;;;;3.81;100.00;103276.25;4936573;29;20086;-68
2022/01/28 04:18:04;;;;;;;1999.90;999.90;;;;;;;3.67;100.00;103282.91;4980535;28;20042;-69
2022/01/28 04:20:32;;;;;;;1999.90;999.90;;;;;;;3.46;100.00;103278.03;4994822;28;20441;-69
2022/01/28 04:22:57;;;;;;;1999.90;999.90;;;;;;;3.33;100.00;103289.06;4995218;28;20034;-68
2022/01/28 04:25:23;;;;;;;1999.90;999.90;;;;;;;3.17;100.00;103295.66;4996180;28;20124;-69
2022/01/28 04:27:48;;;;;;;1999.90;999.90;;;;;;;3.27;100.00;103293.25;4996166;28;20418;-68
2022/01/28 04:30:14;;;;;;;1999.90;999.90;;;;;;;3.15;100.00;103293.84;4996486;28;20030;-68
2022/01/28 04:32:39;;;;;;;1999.90;999.90;;;;;;;3.21;100.00;103303.59;4996106;28;20113;-68
2022/01/28 04:35:06;;;;;;;1999.90;999.90;;;;;;;3.25;100.00;103313.38;4994958;28;20042;-68
2022/01/28 04:37:42;;;;;;;1999.90;999.90;;;;;;;3.06;100.00;103315.47;4996242;28;20389;-68
2022/01/28 04:40:17;;;;;;;1999.90;999.90;;;;;;;2.88;100.00;103309.72;4994832;28;20408;-68
2022/01/28 04:45:19;;;;;;;1999.90;999.90;;;;;;;2.54;100.00;103313.94;4996006;28;20070;-68
2022/01/28 04:53:14;;;;;;;1999.90;999.90;;;;;;;2.23;100.00;103312.16;4995961;28;20077;-68
2022/01/28 05:13:30;;;;;;;1999.90;999.90;;;;;;;2.06;100.00;103305.53;4995521;28;20034;-68
2022/01/28 05:26:52;;;;;;;1999.90;999.90;;;;;;;2.11;100.00;103318.78;4995638;28;20073;-68
2022/01/28 05:29:17;;;;;;;1999.90;999.90;;;;;;;1.96;100.00;103315.66;4995246;28;20033;-68
2022/01/28 05:31:43;;;;;;;1999.90;999.90;;;;;;;1.88;100.00;103311.91;4994755;28;20030;-68
2022/01/28 05:34:08;;;;;;;1999.90;999.90;;;;;;;1.79;100.00;103316.84;4995112;28;20022;-68
2022/01/28 05:36:35;;;;;;;1999.90;999.90;;;;;;;1.77;100.00;103323.75;4994424;28;20426;-68
2022/01/28 05:39:00;;;;;;;1999.90;999.90;;;;;;;1.89;100.00;103329.41;5012673;28;20041;-70
2022/01/28 05:41:25;;;;;;;1999.90;999.90;;;;;;;1.79;100.00;103328.22;5016569;28;20026;-68
2022/01/28 05:43:51;;;;;;;1999.90;999.90;;;;;;;1.67;100.00;103334.81;5014683;28;20465;-68
2022/01/28 05:46:18;;;;;;;1999.90;999.90;;;;;;;1.69;100.00;103344.47;5015264;28;20108;-69
2022/01/28 05:48:44;;;;;;;1999.90;999.90;;;;;;;1.59;100.00;103338.03;5013885;28;20144;-69
2022/01/28 05:51:09;;;;;;;1999.90;999.90;;;;;;;1.63;100.00;103340.75;5014568;28;20496;-70
2022/01/28 05:53:34;;;;;;;1999.90;999.90;;;;;;;1.54;100.00;103337.00;5010043;28;20034;-71
2022/01/28 05:56:00;;;;;;;1999.90;999.90;;;;;;;1.56;100.00;103347.50;4994635;28;20470;-69
2022/01/28 05:58:25;;;;;;;1999.90;999.90;;;;;;;1.53;100.00;103352.66;4992552;28;20379;-68
2022/01/28 06:00:51;;;;;;;1999.90;999.90;;;;;;;1.52;100.00;103345.66;4991944;28;20026;-69
2022/01/28 06:03:16;;;;;;;1999.90;999.90;;;;;;;1.43;100.00;103347.97;4995140;28;20042;-69
2022/01/28 06:05:44;;;;;;;1999.90;999.90;;;;;;;1.36;100.00;103348.56;4996038;28;20100;-68
2022/01/28 06:08:10;;;;;;;1999.90;999.90;;;;;;;1.40;100.00;103363.56;5012892;28;20033;-69
2022/01/28 06:10:35;;;;;;;1999.90;999.90;;;;;;;1.64;100.00;103369.63;5008133;28;20093;-69
2022/01/28 06:13:00;;;;;;;1999.90;999.90;;;;;;;1.45;100.00;103382.91;5007047;28;20056;-68
2022/01/28 06:15:26;;;;;;;1999.90;999.90;;;;;;;1.33;100.00;103378.16;5013406;28;20121;-69
2022/01/28 06:17:51;;;;;;;1999.90;999.90;;;;;;;1.26;100.00;103381.38;5013548;28;20038;-69
2022/01/28 06:20:19;;;;;;;1999.90;999.90;;;;;;;1.24;100.00;103384.81;5013704;28;20022;-68
2022/01/28 06:22:44;;;;;;;1999.90;999.90;;;;;;;1.32;100.00;103392.06;5014216;28;20026;-69
2022/01/28 06:25:13;;;;;;;1999.90;999.90;;;;;;;1.33;100.00;103391.25;5012341;28;20073;-70
2022/01/28 06:27:39;;;;;;;1999.90;999.90;;;;;;;1.22;100.00;103394.31;5014109;28;20438;-69
2022/01/28 06:30:05;;;;;;;1999.90;999.90;;;;;;;1.16;100.00;103391.47;5012980;28;20034;-68
2022/01/28 06:32:32;;;;;;;1999.90;999.90;;;;;;;1.11;100.00;103406.13;5013982;28;20034;-69
2022/01/28 06:35:00;;;;;;;1999.90;999.90;;;;;;;1.09;100.00;103402.56;5011957;28;20049;-68
2022/01/28 06:37:26;;;;;;;1999.90;999.90;;;;;;;1.03;100.00;103399.72;4993883;28;20062;-68
2022/01/28 06:39:51;;;;;;;1999.90;999.90;;;;;;;1.01;100.00;103407.50;4994192;28;20037;-69
2022/01/28 06:42:16;;;;;;;1999.90;999.90;;;;;;;0.95;100.00;103416.84;4993926;28;20105;-68
2022/01/28 06:44:41;;;;;;;1999.90;999.90;;;;;;;0.87;100.00;103426.13;4993246;28;20022;-69
2022/01/28 06:47:10;;;;;;;1999.90;999.90;;;;;;;0.82;100.00;103419.88;5010491;28;20552;-69
2022/01/28 06:49:36;;;;;;;1999.90;999.90;;;;;;;0.79;100.00;103431.09;5013914;28;20037;-68
2022/01/28 06:52:02;;;;;;;1999.90;999.90;;;;;;;0.80;100.00;103434.59;5013157;28;20528;-68
2022/01/28 06:54:27;;;;;;;1999.90;999.90;;;;;;;0.81;100.00;103439.91;5012824;28;20114;-68
2022/01/28 06:56:52;;;;;;;1999.90;999.90;;;;;;;0.78;100.00;103446.72;5012148;28;20041;-68
2022/01/28 06:59:18;;;;;;;1999.90;999.90;;;;;;;0.74;100.00;103443.09;5013411;28;20105;-68
2022/01/28 07:01:43;;;;;;;1999.90;999.90;;;;;;;0.69;100.00;103444.66;5013425;28;20022;-68
2022/01/28 07:04:09;;;;;;;1999.90;999.90;;;;;;;0.70;100.00;103440.31;5013376;28;20030;-68
2022/01/28 07:06:34;;;;;;;1999.90;999.90;;;;;;;0.78;100.00;103445.00;5012981;28;20447;-69
2022/01/28 07:08:59;;;;;;;1999.90;999.90;;;;;;;0.82;100.00;103443.41;5012862;28;20026;-70
2022/01/28 07:11:24;;;;;;;1999.90;999.90;;;;;;;0.86;100.00;103442.69;5017558;28;20508;-67
2022/01/28 07:13:50;;;;;;;1999.90;999.90;;;;;;;0.75;100.00;103437.06;5016365;28;20107;-69
2022/01/28 07:16:15;;;;;;;1999.90;999.90;;;;;;;0.96;100.00;103442.22;5007553;28;20033;-68
2022/01/28 07:18:40;;;;;;;1999.90;999.90;;;;;;;1.20;100.00;103464.03;4997585;28;20393;-69
2022/01/28 07:21:06;;;;;;;1999.90;999.90;;;;;;;1.18;100.00;103452.63;4997931;28;20038;-68
2022/01/28 07:23:48;;;;;;;1999.90;999.90;;;;;;;1.11;100.00;103450.63;5011384;28;20030;-67
2022/01/28 07:26:13;;;;;;;1999.90;999.90;;;;;;;0.98;100.00;103457.13;5016691;28;20037;-67
2022/01/28 07:28:41;;;;;;;1999.90;999.90;;;;;;;1.02;100.00;103472.13;5016658;28;20054;-68
2022/01/28 07:31:08;;;;;;;1999.90;999.90;;;;;;;1.00;100.00;103476.38;5017518;28;20025;-68
2022/01/28 07:33:33;;;;;;;1999.90;999.90;;;;;;;1.03;100.00;103475.59;5015697;28;20022;-68
2022/01/28 07:35:59;;;;;;;1999.90;999.90;;;;;;;0.99;100.00;103481.56;5015423;28;20394;-68
2022/01/28 07:38:24;;;;;;;1999.90;999.90;;;;;;;0.93;100.00;103484.81;5016706;28;20137;-67
2022/01/28 07:40:50;;;;;;;1999.90;999.90;;;;;;;0.92;100.00;103479.53;5016516;28;20037;-67
2022/01/28 07:43:15;;;;;;;1999.90;999.90;;;;;;;0.93;100.00;103486.56;5016896;28;20528;-68
2022/01/28 07:45:40;;;;;;;1999.90;999.90;;;;;;;0.99;100.00;103502.50;5016766;28;20032;-69
2022/01/28 07:48:06;;;;;;;1999.90;999.90;;;;;;;1.07;100.00;103504.56;5003360;28;20114;-68
2022/01/28 07:50:31;;;;;;;1999.90;999.90;;;;;;;1.18;100.00;103503.25;5010650;28;20103;-70
2022/01/28 07:52:56;;;;;;;1999.90;999.90;;;;;;;1.14;100.00;103516.16;5016540;28;20080;-68
2022/01/28 07:58:33;;;;;;;1999.90;999.90;;;;;;;1.13;100.00;103519.63;5014192;28;20038;-71
2022/01/28 08:01:01;;;;;;;1999.90;999.90;;;;;;;1.22;100.00;103519.97;5011373;28;20374;-68
2022/01/28 08:03:26;;;;;;;1999.90;999.90;;;;;;;1.24;100.00;103531.38;5016937;28;20136;-68
2022/01/28 08:05:52;;;;;;;1999.90;999.90;;;;;;;1.22;100.00;103533.03;5013176;28;20030;-68
2022/01/28 08:08:20;;;;;;;1999.90;999.90;;;;;;;1.25;100.00;103533.16;5003746;28;20366;-68
2022/01/28 08:10:46;;;;;;;1999.90;999.90;;;;;;;1.26;100.00;103535.84;5017087;28;20026;-68
2022/01/28 08:13:12;;;;;;;1999.90;999.90;;;;;;;1.37;100.00;103544.13;5010585;28;20477;-68
2022/01/28 08:15:39;;;;;;;1999.90;999.90;;;;;;;1.45;100.00;103553.13;5013562;28;20072;-68
2022/01/28 08:18:04;;;;;;;1999.90;999.90;;;;;;;1.64;100.00;103544.25;5007724;28;20551;-68
2022/01/28 08:20:30;;;;;;;1999.90;999.90;;;;;;;1.73;100.00;103540.22;5015269;28;20030;-68
2022/01/28 08:22:59;;;;;;;1999.90;999.90;;;;;;;1.74;100.00;103549.84;4999478;28;20045;-68
2022/01/28 08:25:25;;;;;;;1999.90;999.90;;;;;;;1.84;100.00;103551.09;5016440;28;20030;-68
2022/01/28 08:27:51;;;;;;;1999.90;999.90;;;;;;;1.97;100.00;103555.94;5016604;28;20050;-67
2022/01/28 08:30:19;;;;;;;1999.90;999.90;;;;;;;2.27;100.00;103557.00;5016070;28;20504;-68
2022/01/28 08:32:46;;;;;;;1999.90;999.90;;;;;;;2.34;100.00;103548.50;5012934;28;20034;-68
2022/01/28 08:35:12;;;;;;;1999.90;999.90;;;;;;;2.37;100.00;103556.44;5004615;28;20106;-69
2022/01/28 08:37:37;;;;;;;1999.90;999.90;;;;;;;2.49;100.00;103562.13;4996569;28;20077;-71
2022/01/28 08:40:05;;;;;;;1999.90;999.90;;;;;;;2.63;100.00;103574.84;4999573;28;20022;-69
2022/01/28 08:42:31;;;;;;;1999.90;999.90;;;;;;;2.80;100.00;103573.69;5009759;28;20126;-69
2022/01/28 08:44:56;;;;;;;1999.90;999.90;;;;;;;3.03;100.00;103574.41;4999386;28;20069;-71
2022/01/28 08:47:21;;;;;;;1999.90;999.90;;;;;;;3.18;100.00;103574.88;5011869;28;20022;-69
2022/01/28 08:49:47;;;;;;;1999.90;999.90;;;;;;;3.24;100.00;103567.19;5020113;28;20030;-76
2022/01/28 08:52:12;;;;;;;1999.90;999.90;;;;;;;3.37;100.00;103571.06;5010915;28;20117;-70
2022/01/28 08:54:38;;;;;;;1999.90;999.90;;;;;;;3.46;100.00;103576.59;5005419;28;20033;-70
2022/01/28 08:57:04;;;;;;;1999.90;999.90;;;;;;;3.50;100.00;103573.22;5014401;28;20033;-70
2022/01/28 08:59:29;;;;;;;1999.90;999.90;;;;;;;3.52;100.00;103579.41;5014017;28;20033;-70
2022/01/28 09:01:55;;;;;;;1999.90;999.90;;;;;;;3.61;100.00;103564.78;5012867;28;20049;-70
2022/01/28 09:04:20;;;;;;;1999.90;999.90;;;;;;;3.54;100.00;103561.97;5001403;28;20077;-69
2022/01/28 09:06:46;;;;;;;1999.90;999.90;;;;;;;3.52;100.00;103567.16;5015422;28;20128;-70
2022/01/28 09:09:11;;;;;;;1999.90;999.90;;;;;;;3.78;100.00;103574.06;5015307;28;20030;-70
2022/01/28 09:11:53;;;;;;;1999.90;999.90;;;;;;;3.91;100.00;103562.13;5013960;28;20033;-70
2022/01/28 09:14:20;;;;;;;1999.90;999.90;;;;;;;3.92;100.00;103570.09;5004913;28;20026;-69
2022/01/28 09:16:45;;;;;;;1999.90;999.90;;;;;;;4.18;100.00;103584.84;5014318;28;20041;-69
2022/01/28 09:19:11;;;;;;;1999.90;999.90;;;;;;;4.30;100.00;103589.53;5014088;28;20037;-69
2022/01/28 09:21:37;;;;;;;1999.90;999.90;;;;;;;4.57;100.00;103584.97;5013830;28;20034;-69
2022/01/28 09:24:03;;;;;;;1999.90;999.90;;;;;;;4.69;100.00;103585.31;5014105;28;20081;-69
2022/01/28 09:26:28;;;;;;;1999.90;999.90;;;;;;;4.88;100.00;103586.63;5013569;28;20091;-69
2022/01/28 09:28:54;;;;;;;1999.90;999.90;;;;;;;5.32;100.00;103571.00;5006841;28;20034;-69
2022/01/28 09:31:19;;;;;;;1999.90;999.90;;;;;;;5.37;100.00;103572.00;5013458;28;20048;-69
2022/01/28 09:33:45;;;;;;;1999.90;999.90;;;;;;;5.53;100.00;103567.94;5005418;28;20049;-70
2022/01/28 09:36:10;;;;;;;1999.90;999.90;;;;;;;5.54;100.00;103570.63;5008807;28;20022;-69
2022/01/28 09:38:36;;;;;;;1999.90;999.90;;;;;;;5.67;100.00;103562.09;5003162;28;20388;-69
2022/01/28 09:41:04;;;;;;;1999.90;999.90;;;;;;;5.96;100.00;103553.06;4999376;28;20390;-70
2022/01/28 09:43:30;;;;;;;1999.90;999.90;;;;;;;6.17;100.00;103558.75;5004692;28;20026;-69
2022/01/28 09:45:56;;;;;;;1999.90;999.90;;;;;;;6.13;100.00;103569.19;4998518;28;20337;-69
2022/01/28 09:48:22;;;;;;;1999.90;999.90;;;;;;;6.36;100.00;103575.81;5016137;28;20053;-70
2022/01/28 09:50:48;;;;;;;1999.90;999.90;;;;;;;6.47;100.00;103575.97;5012739;28;20096;-69
2022/01/28 09:53:15;;;;;;;1999.90;999.90;;;;;;;6.64;100.00;103564.84;5009443;28;20040;-70
2022/01/28 09:55:42;;;;;;;1999.90;999.90;;;;;;;6.72;100.00;103560.59;5003629;28;20389;-68
2022/01/28 09:58:36;;;;;;;1999.90;999.90;;;;;;;6.74;100.00;103550.94;4995432;28;20505;-69
2022/01/28 10:01:02;;;;;;;1999.90;999.90;;;;;;;6.85;100.00;103551.09;5001762;28;20113;-68
2022/01/28 10:03:36;;;;;;;1999.90;999.90;;;;;;;6.86;100.00;103569.63;5006658;28;20018;-68
2022/01/28 10:06:02;;;;;;;1999.90;999.90;;;;;;;6.78;100.00;103565.06;5014643;28;20090;-68
2022/01/28 10:08:28;;;;;;;1999.90;999.90;;;;;;;6.62;100.00;103565.69;5014884;28;20053;-68
2022/01/28 10:11:09;;;;;;;1999.90;999.90;;;;;;;6.72;100.00;103563.22;5013096;28;20061;-68
2022/01/28 10:13:53;;;;;;;1999.90;999.90;;;;;;;6.72;100.00;103571.16;5014495;28;20030;-69
2022/01/28 10:16:27;;;;;;;1999.90;999.90;;;;;;;6.58;100.00;103563.84;5014271;28;20465;-69
2022/01/28 10:18:54;;;;;;;1999.90;999.90;;;;;;;6.78;100.00;103567.69;5012671;28;20453;-67
2022/01/28 10:21:40;;;;;;;1999.90;999.90;;;;;;;6.76;100.00;103577.38;5014070;28;20117;-73
2022/01/28 10:24:26;;;;;;;1999.90;999.90;;;;;;;6.89;100.00;103576.69;5012417;28;20030;-68
2022/01/28 10:26:56;;;;;;;1999.90;999.90;;;;;;;6.88;100.00;103578.47;5010568;28;20053;-68
2022/01/28 10:29:27;;;;;;;1999.90;999.90;;;;;;;6.69;100.00;103580.75;5006797;28;20113;-68
2022/01/28 10:31:59;;;;;;;1999.90;999.90;;;;;;;6.76;100.00;103578.25;4999566;28;20058;-67
2022/01/28 10:34:36;;;;;;;1999.90;999.90;;;;;;;6.66;100.00;103571.06;5012373;28;20033;-68
2022/01/28 10:37:24;;;;;;;1999.90;999.90;;;;;;;6.72;100.00;103576.44;4999379;28;20065;-68
2022/01/28 10:39:57;;;;;;;1999.90;999.90;;;;;;;7.01;100.00;103579.53;5013336;28;20389;-68
2022/01/28 10:42:25;;;;;;;1999.90;999.90;;;;;;;6.97;100.00;103575.97;5013715;28;20026;-68
2022/01/28 10:45:03;;;;;;;1999.90;999.90;;;;;;;6.92;100.00;103577.63;5009465;28;20572;-68
2022/01/28 10:47:36;;;;;;;1999.90;999.90;;;;;;;6.95;100.00;103575.03;5014810;28;20339;-68
2022/01/28 10:50:22;;;;;;;1999.90;999.90;;;;;;;7.04;100.00;103567.28;5017960;28;20049;-68
2022/01/28 10:52:56;;;;;;;1999.90;999.90;;;;;;;7.15;100.00;103568.31;5001162;28;20022;-68
2022/01/28 10:55:22;;;;;;;1999.90;999.90;;;;;;;7.01;100.00;103558.41;5017871;28;20045;-68
2022/01/28 10:58:01;;;;;;;1999.90;999.90;;;;;;;7.12;100.00;103556.81;5017111;28;20030;-68
2022/01/28 11:00:32;;;;;;;1999.90;999.90;;;;;;;7.31;100.00;103562.34;5017701;28;20029;-68
2022/01/28 11:03:00;;;;;;;1999.90;999.90;;;;;;;7.58;100.00;103562.72;5016311;28;20117;-68
2022/01/28 11:05:29;;;;;;;1999.90;999.90;;;;;;;7.70;100.00;103564.66;5017682;28;20033;-70
2022/01/28 11:07:54;;;;;;;1999.90;999.90;;;;;;;7.68;100.00;103555.81;4996599;28;20037;-69
2022/01/28 11:10:20;;;;;;;1999.90;999.90;;;;;;;7.96;100.00;103557.03;5017516;28;20034;-68
2022/01/28 11:12:45;;;;;;;1999.90;999.90;;;;;;;7.98;100.00;103550.88;5017665;28;20394;-68
2022/01/28 11:15:12;;;;;;;1999.90;999.90;;;;;;;7.82;100.00;103538.34;5016664;28;20033;-68
2022/01/28 11:17:37;;;;;;;1999.90;999.90;;;;;;;7.77;100.00;103542.66;5016117;28;20512;-68
2022/01/28 11:20:05;;;;;;;1999.90;999.90;;;;;;;7.72;100.00;103539.97;5007828;28;20034;-68
2022/01/28 11:23:00;;;;;;;1999.90;999.90;;;;;;;7.85;100.00;103548.94;5001011;28;20034;-68
2022/01/28 11:25:56;;;;;;;1999.90;999.90;;;;;;;7.88;100.00;103526.94;5005572;28;20041;-68
2022/01/28 11:28:47;;;;;;;1999.90;999.90;;;;;;;7.93;100.00;103525.22;4996919;28;20050;-68
2022/01/28 11:31:14;;;;;;;1999.90;999.90;;;;;;;8.11;100.00;103520.13;4998211;28;20027;-68
2022/01/28 11:33:49;;;;;;;1999.90;999.90;;;;;;;8.16;100.00;103516.66;4997212;28;20456;-68
2022/01/28 11:36:35;;;;;;;1999.90;999.90;;;;;;;8.37;100.00;103508.03;4997913;28;20312;-68
2022/01/28 11:39:08;;;;;;;1999.90;999.90;;;;;;;8.37;100.00;103513.31;5000192;28;20038;-70
2022/01/28 11:41:34;;;;;;;1999.90;999.90;;;;;;;8.33;100.00;103509.78;5015629;28;20037;-72
2022/01/28 11:44:00;;;;;;;1999.90;999.90;;;;;;;8.49;100.00;103502.88;5015148;28;20030;-76
2022/01/28 11:46:31;;;;;;;1999.90;999.90;;;;;;;8.50;100.00;103510.81;4997831;28;20127;-69
2022/01/28 11:48:57;;;;;;;1999.90;999.90;;;;;;;8.92;100.00;103510.22;5011743;28;20443;-68
2022/01/28 11:51:23;;;;;;;1999.90;999.90;;;;;;;8.75;100.00;103501.28;5011218;28;20041;-69
2022/01/28 11:53:58;;;;;;;1999.90;999.90;;;;;;;8.47;100.00;103504.59;5021827;28;20118;-71
2022/01/28 11:56:25;;;;;;;1999.90;999.90;;;;;;;8.34;100.00;103502.72;5017621;28;20038;-73
2022/01/28 11:58:57;;;;;;;1999.90;999.90;;;;;;;8.22;100.00;103508.78;5016920;28;20473;-69
2022/01/28 12:01:46;;;;;;;1999.90;999.90;;;;;;;7.98;100.00;103511.16;5020657;28;20038;-70
2022/01/28 12:04:23;;;;;;;1999.90;999.90;;;;;;;7.95;100.00;103507.59;5012058;28;20363;-71
2022/01/28 12:07:18;;;;;;;1999.90;999.90;;;;;;;7.98;100.00;103487.34;5011452;28;20492;-68
2022/01/28 12:09:54;;;;;;;1999.90;999.90;;;;;;;8.04;100.00;103489.16;5013909;28;20034;-69
2022/01/28 12:12:49;;;;;;;1999.90;999.90;;;;;;;8.10;100.00;103483.94;5016865;28;20026;-71
2022/01/28 12:15:18;;;;;;;1999.90;999.90;;;;;;;7.97;100.00;103474.09;5001203;28;20034;-72
2022/01/28 12:17:46;;;;;;;1999.90;999.90;;;;;;;7.86;100.00;103460.78;4996852;28;20062;-72
2022/01/28 12:20:24;;;;;;;1999.90;999.90;;;;;;;7.79;100.00;103454.53;4997068;28;20158;-72
2022/01/28 12:23:11;;;;;;;1999.90;999.90;;;;;;;7.97;100.00;103463.53;4995808;28;20030;-72
2022/01/28 12:25:36;;;;;;;1999.90;999.90;;;;;;;8.21;100.00;103454.03;4995513;28;20018;-72
2022/01/28 12:28:26;;;;;;;1999.90;999.90;;;;;;;8.48;100.00;103456.94;5008283;28;20465;-72
2022/01/28 12:31:05;;;;;;;1999.90;999.90;;;;;;;8.92;100.00;103444.88;5013079;28;20082;-71